Tortugas, Argentina
Current Conditions -  °F | °C
As of 1:00 PM on Monday 26 Jan 2015 (Local Time) from SAAR Reporting Station
Scattered Clouds Scattered Clouds  
Wind Chill: 91°   Ceiling: Unl
Heat Index: 98°   Visibility: 6mi
Dew Point: 72°   Wind: 14mph
Humidity: 52%   Direction: 360°N
Pressure: 29.77"   Gusts: NA
Location:  32.73°S, 61.82°W
Report Text: SAAR 261600Z 36012KT 9999 FEW032 SCT20033/22 Q1008
Loading
Personal Weather Stations






























Interactive Weather Map New forecast layout! Learn more

10-Day Weather Forecast

Advertisements
Track Severe Weather on mobile